Time;durP1;ratioP1;P1;durP2;ratioP2;P2;SDS_P1;SDS_P2;PMS_P1;PMS_P2;Temp;Humidity;BMP_temperature;BMP_pressure;BME280_temperature;BME280_humidity;BME280_pressure;Samples;Min_cycle;Max_cycle;Signal;HPM_P1;HPM_P2
2022/03/04 00:00:39;;;;;;;;;62.75;47.75;;;;;;;;5034729;28;45548;-76
2022/03/04 00:03:05;;;;;;;;;59.25;46.50;;;;;;;;5034515;28;46923;-77
2022/03/04 00:05:30;;;;;;;;;62.75;49.00;;;;;;;;5034735;28;45382;-77
2022/03/04 00:07:55;;;;;;;;;63.00;49.00;;;;;;;;5034263;28;45384;-76
2022/03/04 00:10:20;;;;;;;;;60.75;48.00;;;;;;;;5034634;28;45564;-77
2022/03/04 00:12:46;;;;;;;;;59.00;47.75;;;;;;;;5034507;28;46412;-77
2022/03/04 00:15:11;;;;;;;;;59.00;47.75;;;;;;;;5034682;28;45609;-77
2022/03/04 00:17:36;;;;;;;;;61.00;49.00;;;;;;;;5034796;28;45458;-76
2022/03/04 00:20:02;;;;;;;;;59.25;48.25;;;;;;;;5034318;28;45534;-77
2022/03/04 00:22:27;;;;;;;;;58.00;45.50;;;;;;;;5033347;28;46159;-77
2022/03/04 00:24:52;;;;;;;;;61.00;48.50;;;;;;;;5034292;28;45415;-77
2022/03/04 00:27:18;;;;;;;;;62.50;49.00;;;;;;;;5034464;28;45492;-77
2022/03/04 00:29:43;;;;;;;;;57.75;47.75;;;;;;;;5034749;28;45499;-77
2022/03/04 00:32:08;;;;;;;;;60.00;48.50;;;;;;;;5033960;28;46017;-77
2022/03/04 00:34:33;;;;;;;;;62.75;49.25;;;;;;;;5029196;28;45392;-77
2022/03/04 00:36:59;;;;;;;;;62.00;49.50;;;;;;;;5022066;28;45466;-77
2022/03/04 00:39:24;;;;;;;;;64.75;50.75;;;;;;;;5034193;28;45210;-76
2022/03/04 00:41:49;;;;;;;;;59.50;46.75;;;;;;;;5034295;28;47073;-77
2022/03/04 00:44:14;;;;;;;;;60.00;47.25;;;;;;;;5033980;28;45467;-77
2022/03/04 00:46:40;;;;;;;;;59.25;48.00;;;;;;;;5033937;28;45391;-77
2022/03/04 00:49:05;;;;;;;;;63.75;48.00;;;;;;;;5034218;28;45470;-77
2022/03/04 00:51:30;;;;;;;;;65.00;51.50;;;;;;;;5033418;28;47451;-77
2022/03/04 00:53:55;;;;;;;;;62.75;50.00;;;;;;;;5034647;28;45446;-77
2022/03/04 00:56:21;;;;;;;;;64.75;51.00;;;;;;;;5033611;28;45343;-77
2022/03/04 00:58:46;;;;;;;;;64.75;51.00;;;;;;;;5033748;28;45462;-76
2022/03/04 01:01:11;;;;;;;;;65.25;50.00;;;;;;;;5033464;28;46488;-77
2022/03/04 01:03:36;;;;;;;;;64.25;52.00;;;;;;;;5016739;28;45405;-76
2022/03/04 01:06:03;;;;;;;;;70.25;54.50;;;;;;;;5037123;28;45326;-76
2022/03/04 01:08:28;;;;;;;;;66.00;51.00;;;;;;;;5037631;28;45343;-76
2022/03/04 01:10:53;;;;;;;;;68.75;54.25;;;;;;;;5037174;28;47387;-76
2022/03/04 01:13:21;;;;;;;;;73.25;55.75;;;;;;;;5034976;28;45380;-76
2022/03/04 01:15:46;;;;;;;;;59.75;48.25;;;;;;;;5024181;28;45300;-77
2022/03/04 01:18:11;;;;;;;;;64.25;50.50;;;;;;;;5038271;28;45339;-76
2022/03/04 01:20:37;;;;;;;;;70.25;53.50;;;;;;;;5037074;28;46163;-76
2022/03/04 01:23:02;;;;;;;;;53.00;44.75;;;;;;;;5036619;28;45513;-76
2022/03/04 01:25:28;;;;;;;;;66.00;51.25;;;;;;;;5036909;28;45565;-76
2022/03/04 01:27:53;;;;;;;;;72.67;54.00;;;;;;;;5037047;28;45511;-76
2022/03/04 01:30:18;;;;;;;;;67.50;52.00;;;;;;;;5036701;28;46310;-76
2022/03/04 01:32:44;;;;;;;;;68.25;53.00;;;;;;;;5037251;28;45452;-76
2022/03/04 01:35:09;;;;;;;;;66.75;51.75;;;;;;;;5036550;28;45380;-77
2022/03/04 01:37:35;;;;;;;;;66.75;54.00;;;;;;;;5037101;28;45344;-76
2022/03/04 01:40:01;;;;;;;;;66.25;52.75;;;;;;;;5037027;28;45586;-75
2022/03/04 01:42:26;;;;;;;;;64.75;52.75;;;;;;;;5036885;28;45542;-76
2022/03/04 01:44:51;;;;;;;;;69.25;52.25;;;;;;;;5037654;28;45316;-76
2022/03/04 01:47:16;;;;;;;;;69.50;54.75;;;;;;;;5036941;28;45533;-76
2022/03/04 01:49:42;;;;;;;;;68.50;55.75;;;;;;;;5036136;28;45335;-76
2022/03/04 01:52:08;;;;;;;;;67.25;53.50;;;;;;;;5035249;28;45363;-76
2022/03/04 01:54:33;;;;;;;;;72.00;55.67;;;;;;;;5021464;28;45363;-76
2022/03/04 01:56:58;;;;;;;;;64.75;51.00;;;;;;;;5037328;28;45440;-76
2022/03/04 01:59:24;;;;;;;;;67.50;53.00;;;;;;;;5037000;28;45327;-76
2022/03/04 02:01:49;;;;;;;;;66.00;52.00;;;;;;;;5036490;28;45528;-75
2022/03/04 02:04:14;;;;;;;;;66.25;51.25;;;;;;;;5036105;28;45331;-75
2022/03/04 02:06:39;;;;;;;;;69.50;53.75;;;;;;;;5036593;28;45474;-75
2022/03/04 02:09:04;;;;;;;;;65.00;52.25;;;;;;;;5037337;28;47201;-75
2022/03/04 02:11:30;;;;;;;;;69.00;51.75;;;;;;;;5036937;28;45459;-75
2022/03/04 02:13:55;;;;;;;;;66.25;52.50;;;;;;;;5036516;28;45544;-76
2022/03/04 02:16:26;;;;;;;;;67.25;52.75;;;;;;;;5034868;28;45361;-74
2022/03/04 02:18:52;;;;;;;;;66.33;52.00;;;;;;;;5036081;28;46185;-76
2022/03/04 02:21:20;;;;;;;;;69.75;54.25;;;;;;;;5036236;28;45350;-76
2022/03/04 02:23:45;;;;;;;;;69.75;55.75;;;;;;;;5036942;28;45411;-76
2022/03/04 02:26:10;;;;;;;;;70.75;56.25;;;;;;;;5036109;28;45556;-76
2022/03/04 02:28:35;;;;;;;;;73.50;57.25;;;;;;;;5035940;28;46270;-76
2022/03/04 02:31:01;;;;;;;;;69.75;52.50;;;;;;;;5036174;28;45393;-76
2022/03/04 02:33:26;;;;;;;;;68.50;53.50;;;;;;;;5019867;28;45455;-77
2022/03/04 02:35:51;;;;;;;;;70.75;55.50;;;;;;;;5036659;28;45411;-76
2022/03/04 02:38:16;;;;;;;;;76.00;58.25;;;;;;;;5035903;28;46094;-77
2022/03/04 02:40:42;;;;;;;;;75.00;57.25;;;;;;;;5035757;28;45495;-75
2022/03/04 02:43:07;;;;;;;;;69.00;52.50;;;;;;;;5036197;28;45506;-77
2022/03/04 02:45:32;;;;;;;;;69.25;55.50;;;;;;;;5036151;28;45422;-77
2022/03/04 02:47:58;;;;;;;;;71.75;56.75;;;;;;;;5036182;28;47241;-76
2022/03/04 02:50:23;;;;;;;;;76.25;57.75;;;;;;;;5035908;28;45375;-77
2022/03/04 02:52:48;;;;;;;;;72.50;55.75;;;;;;;;5035674;28;45378;-77
2022/03/04 02:55:13;;;;;;;;;66.50;54.00;;;;;;;;5036734;28;47470;-76
2022/03/04 02:57:39;;;;;;;;;70.75;52.75;;;;;;;;5035149;28;47383;-76
2022/03/04 03:00:05;;;;;;;;;69.25;53.75;;;;;;;;5035727;28;45479;-76
2022/03/04 03:02:30;;;;;;;;;61.75;49.00;;;;;;;;5035887;28;45549;-77
2022/03/04 03:04:55;;;;;;;;;67.50;50.25;;;;;;;;5035706;28;45181;-76
2022/03/04 03:07:20;;;;;;;;;64.00;50.00;;;;;;;;5035539;28;45966;-75
2022/03/04 03:09:45;;;;;;;;;65.50;49.25;;;;;;;;5035677;28;45697;-76
2022/03/04 03:12:11;;;;;;;;;61.75;49.25;;;;;;;;5019945;28;45352;-76
2022/03/04 03:14:36;;;;;;;;;54.50;45.50;;;;;;;;5035919;28;45399;-75
2022/03/04 03:17:01;;;;;;;;;61.25;47.75;;;;;;;;5035035;28;46269;-76
2022/03/04 03:19:27;;;;;;;;;58.25;45.50;;;;;;;;5035176;28;45351;-76
2022/03/04 03:21:52;;;;;;;;;51.75;42.25;;;;;;;;5035220;28;45446;-76
2022/03/04 03:24:17;;;;;;;;;55.00;44.00;;;;;;;;5035358;28;45455;-76
2022/03/04 03:26:42;;;;;;;;;52.75;39.25;;;;;;;;5035048;28;46234;-76
2022/03/04 03:29:09;;;;;;;;;50.75;41.75;;;;;;;;5034742;28;45408;-76
2022/03/04 03:31:34;;;;;;;;;57.00;45.00;;;;;;;;5034908;28;45541;-75
2022/03/04 03:33:59;;;;;;;;;55.75;43.75;;;;;;;;5035307;28;45490;-76
2022/03/04 03:36:24;;;;;;;;;55.75;43.50;;;;;;;;5034959;28;47279;-77
2022/03/04 03:38:50;;;;;;;;;51.00;39.25;;;;;;;;5035836;28;45347;-76
2022/03/04 03:41:15;;;;;;;;;48.25;38.50;;;;;;;;5035264;28;45534;-76
2022/03/04 03:43:40;;;;;;;;;51.50;42.50;;;;;;;;5034948;28;45751;-75
2022/03/04 03:46:06;;;;;;;;;51.00;39.25;;;;;;;;5034271;28;46141;-75
2022/03/04 03:48:31;;;;;;;;;53.25;42.75;;;;;;;;5035135;28;45309;-76
2022/03/04 03:50:56;;;;;;;;;52.25;43.25;;;;;;;;5019572;28;45467;-76
2022/03/04 03:53:21;;;;;;;;;50.25;39.00;;;;;;;;5034671;28;45653;-77
2022/03/04 03:55:47;;;;;;;;;50.75;41.25;;;;;;;;5034636;28;46210;-77
2022/03/04 03:58:12;;;;;;;;;53.50;43.25;;;;;;;;5034329;28;45431;-76
2022/03/04 04:00:37;;;;;;;;;57.50;46.25;;;;;;;;5034305;28;45320;-76
2022/03/04 04:03:02;;;;;;;;;51.00;41.50;;;;;;;;5035025;28;45567;-76
2022/03/04 04:05:28;;;;;;;;;60.75;46.75;;;;;;;;5034682;28;45425;-75
2022/03/04 04:07:53;;;;;;;;;56.50;43.75;;;;;;;;5034319;28;45327;-74
2022/03/04 04:10:19;;;;;;;;;55.25;45.75;;;;;;;;5034598;28;45491;-75
2022/03/04 04:12:44;;;;;;;;;59.00;46.00;;;;;;;;5034514;28;47624;-74
2022/03/04 04:15:09;;;;;;;;;57.50;45.50;;;;;;;;5034300;28;45205;-75
2022/03/04 04:17:34;;;;;;;;;57.25;46.00;;;;;;;;5034580;28;45490;-75
2022/03/04 04:19:59;;;;;;;;;57.00;46.00;;;;;;;;5034175;28;45530;-75
2022/03/04 04:22:25;;;;;;;;;57.00;45.25;;;;;;;;5034205;28;45428;-75
2022/03/04 04:24:50;;;;;;;;;58.00;45.00;;;;;;;;5033825;28;47120;-75
2022/03/04 04:27:15;;;;;;;;;58.75;46.00;;;;;;;;5033970;28;45530;-76
2022/03/04 04:29:40;;;;;;;;;50.00;42.25;;;;;;;;5020937;28;45381;-75
2022/03/04 04:32:06;;;;;;;;;60.25;48.25;;;;;;;;5032222;28;45559;-75
2022/03/04 04:34:31;;;;;;;;;61.00;50.00;;;;;;;;5033954;28;45343;-75
2022/03/04 04:36:56;;;;;;;;;41.00;28.50;;;;;;;;5034049;28;45482;-75
2022/03/04 04:39:21;;;;;;;;;56.00;46.50;;;;;;;;5033079;28;45332;-74
2022/03/04 04:41:47;;;;;;;;;65.00;51.25;;;;;;;;5034467;28;45422;-76
2022/03/04 04:44:12;;;;;;;;;66.25;52.75;;;;;;;;5033369;28;45494;-77
2022/03/04 04:46:37;;;;;;;;;62.75;48.00;;;;;;;;5033595;28;45400;-74
2022/03/04 04:49:02;;;;;;;;;64.00;50.75;;;;;;;;5034148;28;45333;-74
2022/03/04 04:51:28;;;;;;;;;64.50;52.75;;;;;;;;5033593;28;45752;-76
2022/03/04 04:53:53;;;;;;;;;63.75;49.00;;;;;;;;5034265;28;46265;-74
2022/03/04 04:56:19;;;;;;;;;64.75;48.00;;;;;;;;5033631;28;45457;-74
2022/03/04 04:58:44;;;;;;;;;60.00;48.00;;;;;;;;5033113;28;45458;-74
2022/03/04 05:01:09;;;;;;;;;68.00;52.75;;;;;;;;5033450;28;45398;-76
2022/03/04 05:03:34;;;;;;;;;63.75;48.75;;;;;;;;5033667;28;46519;-77
2022/03/04 05:05:59;;;;;;;;;62.00;49.75;;;;;;;;5033825;28;45518;-77
2022/03/04 05:08:26;;;;;;;;;65.25;50.00;;;;;;;;5022136;28;45509;-75
2022/03/04 05:10:52;;;;;;;;;65.25;52.00;;;;;;;;5028760;28;45550;-75
2022/03/04 05:13:17;;;;;;;;;63.50;50.00;;;;;;;;5032642;28;45998;-76
2022/03/04 05:15:42;;;;;;;;;60.75;48.00;;;;;;;;5033294;28;45293;-75
2022/03/04 05:18:10;;;;;;;;;62.00;49.50;;;;;;;;5033232;28;45435;-77
2022/03/04 05:20:36;;;;;;;;;64.25;49.25;;;;;;;;5033522;28;45657;-76
2022/03/04 05:23:01;;;;;;;;;60.50;48.00;;;;;;;;5032965;28;46948;-77
2022/03/04 05:25:26;;;;;;;;;62.50;48.25;;;;;;;;5029322;28;45467;-76
2022/03/04 05:27:52;;;;;;;;;60.00;48.00;;;;;;;;5020180;28;45447;-77
2022/03/04 05:30:17;;;;;;;;;55.25;45.75;;;;;;;;5032791;28;45768;-76
2022/03/04 05:32:42;;;;;;;;;62.50;47.25;;;;;;;;5033195;28;46559;-77
2022/03/04 05:35:08;;;;;;;;;62.75;49.25;;;;;;;;5032707;28;45638;-77
2022/03/04 05:37:33;;;;;;;;;62.50;49.50;;;;;;;;5032777;28;45252;-76
2022/03/04 05:39:59;;;;;;;;;60.25;48.00;;;;;;;;5032735;28;45433;-76
2022/03/04 05:42:24;;;;;;;;;64.75;52.25;;;;;;;;5032161;28;46470;-76
2022/03/04 05:44:50;;;;;;;;;59.00;48.00;;;;;;;;5033469;28;45472;-75
2022/03/04 05:47:15;;;;;;;;;59.25;47.25;;;;;;;;5022305;28;45230;-77
2022/03/04 05:49:40;;;;;;;;;62.25;50.25;;;;;;;;5027596;28;45524;-76
2022/03/04 05:52:06;;;;;;;;;67.00;50.25;;;;;;;;5035783;28;45481;-77
2022/03/04 05:54:31;;;;;;;;;62.25;49.25;;;;;;;;5035438;28;45378;-77
2022/03/04 05:56:56;;;;;;;;;62.75;48.00;;;;;;;;5036104;28;45316;-76
2022/03/04 05:59:22;;;;;;;;;61.00;47.50;;;;;;;;5035439;28;45260;-76
2022/03/04 06:01:47;;;;;;;;;60.50;48.50;;;;;;;;5035605;28;46094;-76
2022/03/04 06:04:12;;;;;;;;;66.50;51.00;;;;;;;;5035040;28;45239;-76
2022/03/04 06:06:37;;;;;;;;;64.75;50.75;;;;;;;;5035625;28;45366;-77
2022/03/04 06:09:03;;;;;;;;;61.00;48.00;;;;;;;;5035308;28;45480;-75
2022/03/04 06:11:28;;;;;;;;;63.50;49.00;;;;;;;;5034860;28;46236;-77
2022/03/04 06:13:53;;;;;;;;;66.00;51.75;;;;;;;;5035523;28;45395;-75
2022/03/04 06:16:20;;;;;;;;;60.50;48.00;;;;;;;;5035317;28;45426;-77
2022/03/04 06:18:45;;;;;;;;;65.25;51.50;;;;;;;;5035362;28;45238;-76
2022/03/04 06:21:10;;;;;;;;;65.75;52.50;;;;;;;;5035028;28;45581;-77
2022/03/04 06:23:35;;;;;;;;;71.50;54.75;;;;;;;;5035865;28;45459;-76
2022/03/04 06:26:00;;;;;;;;;67.75;52.25;;;;;;;;5027008;28;45490;-76
2022/03/04 06:28:26;;;;;;;;;63.50;50.00;;;;;;;;5027452;28;45295;-76
2022/03/04 06:30:51;;;;;;;;;68.75;53.00;;;;;;;;5034344;28;45421;-76
2022/03/04 06:33:36;;;;;;;;;58.75;48.00;;;;;;;;5034393;28;45374;-77
2022/03/04 06:36:04;;;;;;;;;65.00;50.75;;;;;;;;5031786;28;45399;-76
2022/03/04 06:38:29;;;;;;;;;65.50;51.00;;;;;;;;5035041;28;45387;-74
2022/03/04 06:40:55;;;;;;;;;59.75;47.00;;;;;;;;5034964;28;46403;-76
2022/03/04 06:43:20;;;;;;;;;62.00;48.00;;;;;;;;5034635;28;45497;-77
2022/03/04 06:45:46;;;;;;;;;56.25;46.50;;;;;;;;5035203;28;45427;-76
2022/03/04 06:48:12;;;;;;;;;57.25;44.75;;;;;;;;5035033;28;45651;-76
2022/03/04 06:50:38;;;;;;;;;68.00;52.25;;;;;;;;5034602;28;46172;-76
2022/03/04 06:53:03;;;;;;;;;66.50;50.00;;;;;;;;5033506;28;45442;-76
2022/03/04 06:55:28;;;;;;;;;63.50;50.75;;;;;;;;5033477;28;45428;-76
2022/03/04 06:57:55;;;;;;;;;73.50;56.00;;;;;;;;5034027;28;46096;-76
2022/03/04 07:00:20;;;;;;;;;64.00;53.00;;;;;;;;5034611;28;45442;-77
2022/03/04 07:02:45;;;;;;;;;59.75;48.25;;;;;;;;5034138;28;45372;-77
2022/03/04 07:05:11;;;;;;;;;59.00;47.50;;;;;;;;5023993;28;45438;-77
2022/03/04 07:07:36;;;;;;;;;66.50;51.00;;;;;;;;5027053;28;45544;-77
2022/03/04 07:10:01;;;;;;;;;60.50;48.25;;;;;;;;5034080;28;46425;-76
2022/03/04 07:12:27;;;;;;;;;57.50;46.00;;;;;;;;5034541;28;45411;-75
2022/03/04 07:14:52;;;;;;;;;67.00;50.50;;;;;;;;5034948;28;45315;-76
2022/03/04 07:17:18;;;;;;;;;62.00;49.00;;;;;;;;5034153;28;45476;-78
2022/03/04 07:19:43;;;;;;;;;62.00;49.25;;;;;;;;5034006;28;46034;-78
2022/03/04 07:22:08;;;;;;;;;62.00;48.75;;;;;;;;5032701;28;45323;-78
2022/03/04 07:24:34;;;;;;;;;64.75;50.25;;;;;;;;5033415;28;45531;-76
2022/03/04 07:26:59;;;;;;;;;64.50;52.00;;;;;;;;5034275;28;45374;-77
2022/03/04 07:29:25;;;;;;;;;92.00;81.00;;;;;;;;5033614;28;46346;-78
2022/03/04 07:31:51;;;;;;;;;64.50;50.25;;;;;;;;5032781;28;45413;-76
2022/03/04 07:34:16;;;;;;;;;60.25;48.25;;;;;;;;5033354;28;47258;-76
2022/03/04 07:36:41;;;;;;;;;60.00;48.50;;;;;;;;5033129;28;45371;-77
2022/03/04 07:39:07;;;;;;;;;60.25;46.75;;;;;;;;5015378;28;48117;-77
2022/03/04 07:41:32;;;;;;;;;59.75;46.75;;;;;;;;5033603;28;45360;-76
2022/03/04 07:43:59;;;;;;;;;63.00;48.50;;;;;;;;5025665;28;45524;-76
2022/03/04 07:46:24;;;;;;;;;64.00;49.25;;;;;;;;5025063;28;45297;-77
2022/03/04 07:48:49;;;;;;;;;65.25;49.75;;;;;;;;5033621;28;46088;-77
2022/03/04 07:51:14;;;;;;;;;65.50;52.00;;;;;;;;5034575;28;45515;-76
2022/03/04 07:53:40;;;;;;;;;69.50;52.50;;;;;;;;5033888;28;45403;-75
2022/03/04 07:56:05;;;;;;;;;60.75;48.50;;;;;;;;5032884;28;45339;-77
2022/03/04 07:58:30;;;;;;;;;66.00;51.25;;;;;;;;5032816;28;46009;-78
2022/03/04 08:00:55;;;;;;;;;63.00;49.75;;;;;;;;5033858;28;45461;-78
2022/03/04 08:03:20;;;;;;;;;65.00;52.00;;;;;;;;5033234;28;45282;-80
2022/03/04 08:05:46;;;;;;;;;69.00;53.00;;;;;;;;5032933;28;45455;-80
2022/03/04 08:08:11;;;;;;;;;64.75;51.75;;;;;;;;5029639;28;47470;-78
2022/03/04 08:10:36;;;;;;;;;64.50;51.00;;;;;;;;5032383;28;45352;-80
2022/03/04 08:13:02;;;;;;;;;59.75;48.00;;;;;;;;5030663;28;45475;-80
2022/03/04 08:15:27;;;;;;;;;70.25;51.00;;;;;;;;5032505;28;45482;-79
2022/03/04 08:17:53;;;;;;;;;67.50;50.25;;;;;;;;5017855;28;47122;-83
2022/03/04 08:20:19;;;;;;;;;65.25;49.00;;;;;;;;5031442;28;46020;-79
2022/03/04 08:22:44;;;;;;;;;61.75;49.00;;;;;;;;5031884;28;45500;-80
2022/03/04 08:25:09;;;;;;;;;63.50;51.25;;;;;;;;5032367;28;45500;-79
2022/03/04 08:27:41;;;;;;;;;65.25;51.00;;;;;;;;5031746;28;47075;-81
2022/03/04 08:30:09;;;;;;;;;67.00;50.25;;;;;;;;5033182;28;45635;-78
2022/03/04 08:32:35;;;;;;;;;63.75;50.50;;;;;;;;5032288;28;45335;-78
2022/03/04 08:35:00;;;;;;;;;59.25;47.00;;;;;;;;5031705;28;45318;-78
2022/03/04 08:37:26;;;;;;;;;62.75;49.00;;;;;;;;5032136;28;45590;-81
2022/03/04 08:39:51;;;;;;;;;63.00;49.00;;;;;;;;5031492;28;45733;-77
2022/03/04 08:42:16;;;;;;;;;64.75;47.75;;;;;;;;5032203;28;45598;-80
2022/03/04 08:44:42;;;;;;;;;64.75;51.50;;;;;;;;5019224;28;45425;-79
2022/03/04 08:47:07;;;;;;;;;62.00;51.00;;;;;;;;5030008;28;45580;-80
2022/03/04 08:49:33;;;;;;;;;66.00;51.00;;;;;;;;5032130;28;45581;-82
2022/03/04 08:51:59;;;;;;;;;65.00;50.25;;;;;;;;5031509;28;45224;-78
2022/03/04 08:54:24;;;;;;;;;63.00;51.25;;;;;;;;5016011;28;45404;-79
2022/03/04 08:56:50;;;;;;;;;61.00;49.50;;;;;;;;5032620;28;47261;-79
2022/03/04 08:59:15;;;;;;;;;65.50;51.50;;;;;;;;5031056;28;45281;-77
2022/03/04 09:01:40;;;;;;;;;74.00;57.50;;;;;;;;5026866;28;45280;-76
2022/03/04 09:04:05;;;;;;;;;64.75;49.75;;;;;;;;5020947;28;47731;-78
2022/03/04 09:06:30;;;;;;;;;62.00;48.50;;;;;;;;5031858;28;46093;-77
2022/03/04 09:08:56;;;;;;;;;65.50;51.25;;;;;;;;5032542;28;45324;-77
2022/03/04 09:11:21;;;;;;;;;64.00;50.25;;;;;;;;5032283;28;45493;-78
2022/03/04 09:13:46;;;;;;;;;63.75;50.25;;;;;;;;5032161;28;45305;-77
2022/03/04 09:16:11;;;;;;;;;63.00;50.25;;;;;;;;5031568;28;46381;-77
2022/03/04 09:18:37;;;;;;;;;63.75;50.00;;;;;;;;5031959;28;45454;-79
2022/03/04 09:21:02;;;;;;;;;57.00;47.00;;;;;;;;5032428;28;45438;-81
2022/03/04 09:23:27;;;;;;;;;64.50;51.00;;;;;;;;5031913;28;45327;-78
2022/03/04 09:25:52;;;;;;;;;69.25;51.25;;;;;;;;5034022;28;46651;-77
2022/03/04 09:28:17;;;;;;;;;64.00;50.50;;;;;;;;5035569;28;45553;-80
2022/03/04 09:30:43;;;;;;;;;68.50;54.25;;;;;;;;5035693;28;45417;-81
2022/03/04 09:33:08;;;;;;;;;63.50;50.25;;;;;;;;5034580;28;45717;-81
2022/03/04 09:35:33;;;;;;;;;64.25;51.50;;;;;;;;5017021;28;47577;-80
2022/03/04 09:37:58;;;;;;;;;62.00;48.75;;;;;;;;5034604;28;45478;-80
2022/03/04 09:40:24;;;;;;;;;65.50;50.75;;;;;;;;5032423;28;45354;-80
2022/03/04 09:42:49;;;;;;;;;60.75;49.00;;;;;;;;5022322;28;45495;-80
2022/03/04 09:45:14;;;;;;;;;69.25;51.50;;;;;;;;5034871;28;45809;-79
2022/03/04 09:47:40;;;;;;;;;63.50;47.25;;;;;;;;5034689;28;45840;-79
2022/03/04 09:50:06;;;;;;;;;69.75;53.50;;;;;;;;5032953;28;45522;-77
2022/03/04 09:52:31;;;;;;;;;72.75;56.00;;;;;;;;5014469;28;45432;-78
2022/03/04 09:54:56;;;;;;;;;73.00;56.00;;;;;;;;5014878;28;45638;-78
2022/03/04 09:57:21;;;;;;;;;67.25;52.50;;;;;;;;5034865;28;45467;-78
2022/03/04 09:59:47;;;;;;;;;59.25;46.50;;;;;;;;5035476;28;45491;-82
2022/03/04 10:02:12;;;;;;;;;65.50;51.00;;;;;;;;5035805;28;45407;-85
2022/03/04 10:04:38;;;;;;;;;63.25;49.50;;;;;;;;5034889;28;46131;-79
2022/03/04 10:07:16;;;;;;;;;63.25;51.50;;;;;;;;5028846;28;45407;-81
2022/03/04 10:09:43;;;;;;;;;70.75;54.75;;;;;;;;5032799;28;45443;-82
2022/03/04 10:12:09;;;;;;;;;64.00;50.00;;;;;;;;5033004;28;45433;-79
2022/03/04 10:14:54;;;;;;;;;64.00;50.00;;;;;;;;5031918;28;46842;-77
2022/03/04 10:17:19;;;;;;;;;73.00;56.75;;;;;;;;5030640;28;45371;-79
2022/03/04 10:19:50;;;;;;;;;69.50;54.75;;;;;;;;5031609;28;45442;-79
2022/03/04 10:22:15;;;;;;;;;67.75;51.00;;;;;;;;5033949;28;45329;-82
2022/03/04 10:24:41;;;;;;;;;71.00;54.75;;;;;;;;5030986;28;45350;-75
2022/03/04 10:27:07;;;;;;;;;65.00;52.00;;;;;;;;5016855;28;45242;-84
2022/03/04 10:29:34;;;;;;;;;72.50;54.50;;;;;;;;5032558;28;45520;-82
2022/03/04 10:32:05;;;;;;;;;56.00;47.00;;;;;;;;5015318;28;45337;-77
2022/03/04 10:34:42;;;;;;;;;60.75;48.75;;;;;;;;5030678;28;46267;-79
2022/03/04 10:37:07;;;;;;;;;67.25;51.75;;;;;;;;5029832;28;45506;-80
2022/03/04 10:39:32;;;;;;;;;67.00;52.00;;;;;;;;5024804;28;45343;-78
2022/03/04 10:41:58;;;;;;;;;64.50;51.00;;;;;;;;5016505;28;45458;-78
2022/03/04 10:44:24;;;;;;;;;65.50;51.50;;;;;;;;5022489;28;46942;-76
2022/03/04 10:46:56;;;;;;;;;66.25;52.75;;;;;;;;5025312;28;45398;-77
2022/03/04 10:49:25;;;;;;;;;63.00;49.75;;;;;;;;5030591;28;45578;-78
2022/03/04 10:51:51;;;;;;;;;68.00;51.00;;;;;;;;5035277;28;45784;-78
2022/03/04 10:54:17;;;;;;;;;72.50;56.75;;;;;;;;5032114;28;46108;-77
2022/03/04 10:56:54;;;;;;;;;73.25;57.75;;;;;;;;5032173;28;45458;-79
2022/03/04 10:59:20;;;;;;;;;71.25;55.25;;;;;;;;5030212;28;45519;-76
2022/03/04 11:01:46;;;;;;;;;74.25;59.50;;;;;;;;5024857;28;45495;-76
2022/03/04 11:04:11;;;;;;;;;71.00;57.00;;;;;;;;5024672;28;45546;-77
2022/03/04 11:06:38;;;;;;;;;67.00;53.00;;;;;;;;5030027;28;45478;-77
2022/03/04 11:09:04;;;;;;;;;70.75;53.50;;;;;;;;5029653;28;45487;-80
2022/03/04 11:11:30;;;;;;;;;70.75;58.50;;;;;;;;5030674;28;45380;-80
2022/03/04 11:13:57;;;;;;;;;70.25;55.00;;;;;;;;5030270;28;47116;-80
2022/03/04 11:16:23;;;;;;;;;63.25;48.75;;;;;;;;5034950;28;45315;-79
2022/03/04 11:18:50;;;;;;;;;67.25;51.50;;;;;;;;5042163;28;45322;-80
2022/03/04 11:21:16;;;;;;;;;71.75;54.00;;;;;;;;5044842;28;45365;-79
2022/03/04 11:23:45;;;;;;;;;81.50;61.75;;;;;;;;5041199;28;45318;-77
2022/03/04 11:26:16;;;;;;;;;77.00;56.00;;;;;;;;5049542;28;45320;-77
2022/03/04 11:28:43;;;;;;;;;65.75;53.75;;;;;;;;5025563;28;45575;-77
2022/03/04 11:31:09;;;;;;;;;62.75;49.25;;;;;;;;5038867;28;45402;-77
2022/03/04 11:33:36;;;;;;;;;67.75;54.25;;;;;;;;5036902;28;45496;-78
2022/03/04 11:36:04;;;;;;;;;67.25;52.50;;;;;;;;5035764;28;45486;-78
2022/03/04 11:38:48;;;;;;;;;66.50;51.25;;;;;;;;5037926;28;45469;-78
2022/03/04 11:41:17;;;;;;;;;67.75;52.50;;;;;;;;5037106;28;45226;-75
2022/03/04 11:44:03;;;;;;;;;68.25;54.25;;;;;;;;5031608;28;45590;-76
2022/03/04 11:46:46;;;;;;;;;73.25;57.50;;;;;;;;5034578;28;45361;-78
2022/03/04 11:49:28;;;;;;;;;67.50;54.75;;;;;;;;5035765;28;45819;-77
2022/03/04 11:52:09;;;;;;;;;63.50;50.75;;;;;;;;5018825;28;45388;-76
2022/03/04 11:54:42;;;;;;;;;65.75;51.25;;;;;;;;5018715;28;46390;-76
2022/03/04 11:57:17;;;;;;;;;69.25;53.75;;;;;;;;5030325;28;45461;-78
2022/03/04 11:59:49;;;;;;;;;70.25;57.50;;;;;;;;5031559;28;45292;-76
2022/03/04 12:02:19;;;;;;;;;68.25;55.00;;;;;;;;5032783;28;45417;-79
2022/03/04 12:04:44;;;;;;;;;72.75;55.00;;;;;;;;5032558;28;47365;-80
2022/03/04 12:07:09;;;;;;;;;65.50;51.75;;;;;;;;5033847;28;45434;-84
2022/03/04 12:09:35;;;;;;;;;69.75;56.75;;;;;;;;5033961;28;45579;-84
2022/03/04 12:12:14;;;;;;;;;70.00;54.50;;;;;;;;5017164;28;45577;-80
2022/03/04 12:14:49;;;;;;;;;73.75;58.25;;;;;;;;5020866;28;46275;-83
2022/03/04 12:17:15;;;;;;;;;68.50;55.25;;;;;;;;5021694;28;45299;-83
2022/03/04 12:19:43;;;;;;;;;69.75;55.00;;;;;;;;5027043;28;45415;-81
2022/03/04 12:22:12;;;;;;;;;60.75;48.50;;;;;;;;5013700;28;45426;-81
2022/03/04 12:24:38;;;;;;;;;76.75;58.00;;;;;;;;5017874;28;46975;-77
2022/03/04 12:27:04;;;;;;;;;70.00;56.75;;;;;;;;5032740;28;45273;-78
2022/03/04 12:29:42;;;;;;;;;64.50;50.25;;;;;;;;5033280;28;45387;-77
2022/03/04 12:32:07;;;;;;;;;67.00;52.25;;;;;;;;5032495;28;45570;-78
2022/03/04 12:34:34;;;;;;;;;61.00;49.00;;;;;;;;5028685;28;45451;-78
2022/03/04 12:37:04;;;;;;;;;72.00;55.25;;;;;;;;5020986;28;45406;-77
2022/03/04 12:39:34;;;;;;;;;68.25;52.25;;;;;;;;5016506;28;45342;-78
2022/03/04 12:42:00;;;;;;;;;66.25;51.75;;;;;;;;5028678;28;45473;-79
2022/03/04 12:44:27;;;;;;;;;68.25;52.75;;;;;;;;5032512;28;45359;-77
2022/03/04 12:46:52;;;;;;;;;67.50;51.50;;;;;;;;5032368;28;45375;-78
2022/03/04 12:49:25;;;;;;;;;62.25;48.50;;;;;;;;5031643;28;45311;-78
2022/03/04 12:51:51;;;;;;;;;66.50;53.00;;;;;;;;5032127;28;45498;-75
2022/03/04 12:54:20;;;;;;;;;66.25;52.25;;;;;;;;5031983;28;46327;-84
2022/03/04 12:56:50;;;;;;;;;67.75;53.00;;;;;;;;5018501;28;45329;-79
2022/03/04 12:59:15;;;;;;;;;61.00;51.75;;;;;;;;5030962;28;47421;-80
2022/03/04 13:01:44;;;;;;;;;65.50;50.25;;;;;;;;5035920;28;45338;-78
2022/03/04 13:04:10;;;;;;;;;64.00;50.00;;;;;;;;5036293;28;46979;-80
2022/03/04 13:06:35;;;;;;;;;63.50;51.75;;;;;;;;5035305;28;45337;-79
2022/03/04 13:09:03;;;;;;;;;60.75;48.25;;;;;;;;5035868;28;45502;-79
2022/03/04 13:11:36;;;;;;;;;69.50;53.50;;;;;;;;5035201;28;45411;-78
2022/03/04 13:14:06;;;;;;;;;60.50;47.75;;;;;;;;5034348;28;46498;-78
2022/03/04 13:16:40;;;;;;;;;57.75;45.75;;;;;;;;5034895;28;45549;-79
2022/03/04 13:19:26;;;;;;;;;59.75;48.50;;;;;;;;5035170;28;45562;-79
2022/03/04 13:22:02;;;;;;;;;63.75;50.50;;;;;;;;5034717;28;45415;-79
2022/03/04 13:24:27;;;;;;;;;62.75;48.25;;;;;;;;5034829;28;47654;-78
2022/03/04 13:27:06;;;;;;;;;56.00;45.75;;;;;;;;5035450;28;45397;-78
2022/03/04 13:29:35;;;;;;;;;62.25;48.75;;;;;;;;5035371;28;45458;-77
2022/03/04 13:32:04;;;;;;;;;63.75;48.75;;;;;;;;5035395;28;45398;-78
2022/03/04 13:34:30;;;;;;;;;54.75;44.50;;;;;;;;5031055;28;47767;-79
2022/03/04 13:36:56;;;;;;;;;58.00;46.25;;;;;;;;5023573;28;45359;-83
2022/03/04 13:39:41;;;;;;;;;64.75;49.25;;;;;;;;5036062;28;45478;-80
2022/03/04 13:42:07;;;;;;;;;54.00;44.75;;;;;;;;5031943;28;45494;-79
2022/03/04 13:44:32;;;;;;;;;63.50;51.75;;;;;;;;5035853;28;46246;-81
2022/03/04 13:47:03;;;;;;;;;60.00;47.50;;;;;;;;5035157;28;45526;-82
2022/03/04 13:49:44;;;;;;;;;60.75;46.00;;;;;;;;5035604;28;45485;-78
2022/03/04 13:52:10;;;;;;;;;58.00;45.75;;;;;;;;5017227;28;45369;-82
2022/03/04 13:54:53;;;;;;;;;60.50;48.00;;;;;;;;5034480;28;45496;-82
2022/03/04 13:57:29;;;;;;;;;61.25;47.25;;;;;;;;5035418;28;45448;-83
2022/03/04 14:00:02;;;;;;;;;62.50;49.00;;;;;;;;5035926;28;45366;-84
2022/03/04 14:02:36;;;;;;;;;61.75;49.00;;;;;;;;5035365;28;45707;-79
2022/03/04 14:05:01;;;;;;;;;60.75;47.75;;;;;;;;5034815;28;46199;-80
2022/03/04 14:07:27;;;;;;;;;58.75;47.00;;;;;;;;5031959;28;45415;-81
2022/03/04 14:09:54;;;;;;;;;62.25;48.25;;;;;;;;5021597;28;45474;-81
2022/03/04 14:12:22;;;;;;;;;63.75;50.75;;;;;;;;5036953;28;45471;-81